createdAt,value
2022-12-13T00:01:20.163Z,15.63
2022-12-13T00:03:47.951Z,15.00
2022-12-13T00:06:15.781Z,14.33
2022-12-13T00:08:43.616Z,15.80
2022-12-13T00:11:12.623Z,16.60
2022-12-13T00:13:42.404Z,15.50
2022-12-13T00:16:12.641Z,13.67
2022-12-13T00:18:40.823Z,11.53
2022-12-13T00:21:10.976Z,12.47
2022-12-13T00:23:38.913Z,14.20
2022-12-13T00:26:07.126Z,14.23
2022-12-13T00:28:34.953Z,21.43
2022-12-13T00:31:43.165Z,16.07
2022-12-13T00:33:52.669Z,15.50
2022-12-13T00:36:20.432Z,13.50
2022-12-13T00:39:00.162Z,13.70
2022-12-13T00:41:29.455Z,21.47
2022-12-13T00:43:57.539Z,13.43
2022-12-13T00:46:27.610Z,14.43
2022-12-13T00:48:56.316Z,15.00
2022-12-13T00:51:24.446Z,13.07
2022-12-13T00:53:52.443Z,15.33
2022-12-13T00:56:21.826Z,13.77
2022-12-13T00:58:52.031Z,12.50
2022-12-13T01:01:21.950Z,14.37
2022-12-13T01:03:52.105Z,19.23
2022-12-13T01:06:22.103Z,15.50
2022-12-13T01:08:49.800Z,13.40
2022-12-13T01:11:17.798Z,15.10
2022-12-13T01:13:46.047Z,13.53
2022-12-13T01:16:14.230Z,15.93
2022-12-13T01:18:42.254Z,12.07
2022-12-13T01:21:13.200Z,12.43
2022-12-13T01:23:41.201Z,14.60
2022-12-13T01:26:09.601Z,14.33
2022-12-13T01:28:37.565Z,12.10
2022-12-13T01:31:06.242Z,13.57
2022-12-13T01:33:34.794Z,14.83
2022-12-13T01:36:03.673Z,12.07
2022-12-13T01:38:37.834Z,19.00
2022-12-13T01:41:16.954Z,15.37
2022-12-13T01:43:56.369Z,18.80
2022-12-13T01:46:24.994Z,20.07
2022-12-13T01:48:56.374Z,18.73
2022-12-13T01:51:26.959Z,23.33
2022-12-13T01:53:58.156Z,18.20
2022-12-13T01:56:28.444Z,16.50
2022-12-13T01:58:56.747Z,19.10
2022-12-13T02:01:25.305Z,15.57
2022-12-13T02:03:53.127Z,15.87
2022-12-13T02:06:24.151Z,18.90
2022-12-13T02:08:52.038Z,12.67
2022-12-13T02:11:21.160Z,14.40
2022-12-13T02:13:48.932Z,14.33
2022-12-13T02:16:27.318Z,19.93
2022-12-13T02:19:04.053Z,17.10
2022-12-13T02:21:35.733Z,17.10
2022-12-13T02:24:12.941Z,16.97
2022-12-13T02:27:01.771Z,15.67
2022-12-13T02:29:47.591Z,19.03
2022-12-13T02:32:20.047Z,18.93
2022-12-13T02:34:49.912Z,18.10
2022-12-13T02:37:23.908Z,15.80
2022-12-13T02:39:55.103Z,24.00
2022-12-13T02:42:25.443Z,13.27
2022-12-13T02:44:56.226Z,18.60
2022-12-13T02:47:26.465Z,16.97
2022-12-13T02:49:56.745Z,17.17
2022-12-13T02:52:26.543Z,17.17
2022-12-13T02:54:54.998Z,15.97
2022-12-13T02:57:33.101Z,18.73
2022-12-13T03:00:02.949Z,15.97
2022-12-13T03:02:38.565Z,19.77
2022-12-13T03:05:29.388Z,19.07
2022-12-13T03:08:01.876Z,20.30
2022-12-13T03:10:33.509Z,17.77
2022-12-13T03:13:21.394Z,18.03
2022-12-13T03:15:52.697Z,22.30
2022-12-13T03:18:23.613Z,15.70
2022-12-13T03:20:54.058Z,15.30
2022-12-13T03:23:22.498Z,22.40
2022-12-13T03:25:51.808Z,20.00
2022-12-13T03:28:19.595Z,15.43
2022-12-13T03:30:47.299Z,15.40
2022-12-13T03:33:15.537Z,20.00
2022-12-13T03:35:45.746Z,18.77
2022-12-13T03:38:22.935Z,13.80
2022-12-13T03:40:53.614Z,15.40
2022-12-13T03:43:22.065Z,21.23
2022-12-13T03:45:50.757Z,20.63
2022-12-13T03:48:21.667Z,19.27
2022-12-13T03:50:54.570Z,20.13
2022-12-13T03:53:32.679Z,16.50
2022-12-13T03:56:02.903Z,16.40
2022-12-13T03:58:35.321Z,15.20
2022-12-13T04:01:06.185Z,16.83
2022-12-13T04:03:33.845Z,15.77
2022-12-13T04:06:02.858Z,14.00
2022-12-13T04:08:30.615Z,15.07
2022-12-13T04:10:59.726Z,19.17
2022-12-13T04:13:32.398Z,18.90
2022-12-13T04:16:01.178Z,14.03
2022-12-13T04:18:28.927Z,18.27
2022-12-13T04:20:57.259Z,19.50
2022-12-13T04:23:26.647Z,15.00
2022-12-13T04:25:54.493Z,15.17
2022-12-13T04:28:23.297Z,24.97
2022-12-13T04:30:53.065Z,18.40
2022-12-13T04:33:21.687Z,16.50
2022-12-13T04:35:49.272Z,16.80
2022-12-13T04:38:17.609Z,18.57
2022-12-13T04:40:46.626Z,21.97
2022-12-13T04:43:14.588Z,17.43
2022-12-13T04:45:42.348Z,14.50
2022-12-13T04:48:10.069Z,16.67
2022-12-13T04:50:37.722Z,18.13
2022-12-13T04:53:05.672Z,21.60
2022-12-13T04:55:33.266Z,19.53
2022-12-13T04:58:02.434Z,18.10
2022-12-13T05:00:30.208Z,19.23
2022-12-13T05:02:58.044Z,14.67
2022-12-13T05:05:25.719Z,25.57
2022-12-13T05:07:53.993Z,14.80
2022-12-13T05:10:33.892Z,23.40
2022-12-13T05:13:07.184Z,14.20
2022-12-13T05:15:35.280Z,13.17
2022-12-13T05:18:09.900Z,21.10
2022-12-13T05:20:39.485Z,14.50
2022-12-13T05:23:07.155Z,14.23
2022-12-13T05:25:36.672Z,14.80
2022-12-13T05:28:09.051Z,16.93
2022-12-13T05:30:54.693Z,14.17
2022-12-13T05:33:23.010Z,12.40
2022-12-13T05:35:52.944Z,15.27
2022-12-13T05:38:24.486Z,16.23
2022-12-13T05:40:52.171Z,16.10
2022-12-13T05:43:22.048Z,17.33
2022-12-13T05:45:50.420Z,17.57
2022-12-13T05:48:24.864Z,18.03
2022-12-13T05:51:09.847Z,17.83
2022-12-13T05:53:39.763Z,20.50
2022-12-13T05:56:07.821Z,18.37
2022-12-13T05:58:36.376Z,25.83
2022-12-13T06:01:08.036Z,15.37
2022-12-13T06:03:37.345Z,12.47
2022-12-13T06:06:05.694Z,18.53
2022-12-13T06:08:33.694Z,15.67
2022-12-13T06:11:10.901Z,16.60
2022-12-13T06:13:42.830Z,16.47
2022-12-13T06:16:21.894Z,16.20
2022-12-13T06:18:59.429Z,13.53
2022-12-13T06:21:41.246Z,13.27
2022-12-13T06:24:11.774Z,18.53
2022-12-13T06:26:39.431Z,14.70
2022-12-13T06:29:07.323Z,14.53
2022-12-13T06:31:35.066Z,14.97
2022-12-13T06:34:13.696Z,14.20
2022-12-13T06:36:42.865Z,15.33
2022-12-13T06:39:10.782Z,17.83
2022-12-13T06:41:38.442Z,17.40
2022-12-13T06:44:06.644Z,15.50
2022-12-13T06:46:34.874Z,18.17
2022-12-13T06:49:03.894Z,13.40
2022-12-13T06:51:34.253Z,16.30
2022-12-13T06:54:02.488Z,20.73
2022-12-13T06:56:31.154Z,15.77
2022-12-13T06:59:01.747Z,16.37
2022-12-13T07:01:37.646Z,16.67
2022-12-13T07:04:29.671Z,15.73
2022-12-13T07:07:01.569Z,21.87
2022-12-13T07:09:30.533Z,17.93
2022-12-13T07:11:58.159Z,20.07
2022-12-13T07:14:26.039Z,19.70
2022-12-13T07:16:57.952Z,19.17
2022-12-13T07:19:35.165Z,21.33
2022-12-13T07:22:05.615Z,16.73
2022-12-13T07:24:33.620Z,16.63
2022-12-13T07:27:01.453Z,19.77
2022-12-13T07:29:29.228Z,22.93
2022-12-13T07:32:01.327Z,18.00
2022-12-13T07:34:29.666Z,17.77
2022-12-13T07:36:58.642Z,19.57
2022-12-13T07:39:27.170Z,17.97
2022-12-13T07:41:56.152Z,20.00
2022-12-13T07:44:24.029Z,18.67
2022-12-13T07:46:51.707Z,19.03
2022-12-13T07:49:19.643Z,18.67
2022-12-13T07:51:48.948Z,20.40
2022-12-13T07:54:18.260Z,16.40
2022-12-13T07:56:46.121Z,18.90
2022-12-13T07:59:14.256Z,24.53
2022-12-13T08:01:42.075Z,20.67
2022-12-13T08:04:10.386Z,17.77
2022-12-13T08:06:38.810Z,22.00
2022-12-13T08:09:06.782Z,22.20
2022-12-13T08:11:35.769Z,20.10
2022-12-13T08:14:03.499Z,17.73
2022-12-13T08:16:31.211Z,17.80
2022-12-13T08:19:02.224Z,18.77
2022-12-13T08:24:24.050Z,20.67
2022-12-13T08:26:53.260Z,20.90
2022-12-13T08:29:23.552Z,18.27
2022-12-13T08:32:02.874Z,18.37
2022-12-13T08:34:31.554Z,19.20
2022-12-13T08:37:02.215Z,17.70
2022-12-13T08:39:34.134Z,17.10
2022-12-13T08:42:16.909Z,18.23
2022-12-13T08:44:48.223Z,17.83
2022-12-13T08:47:24.051Z,18.60
2022-12-13T08:49:54.429Z,16.00
2022-12-13T08:52:22.467Z,18.60
2022-12-13T08:54:50.950Z,17.73
2022-12-13T08:57:20.082Z,17.70
2022-12-13T08:59:47.824Z,19.90
2022-12-13T09:02:16.097Z,17.80
2022-12-13T09:04:44.357Z,15.97
2022-12-13T09:07:12.187Z,16.47
2022-12-13T09:09:40.098Z,17.30
2022-12-13T09:12:10.471Z,16.73
2022-12-13T09:14:45.287Z,16.43
2022-12-13T09:17:24.171Z,17.00
2022-12-13T09:19:58.461Z,16.80
2022-12-13T09:22:33.182Z,16.23
2022-12-13T09:25:02.483Z,19.83
2022-12-13T09:27:30.899Z,18.43
2022-12-13T09:30:12.893Z,17.23
2022-12-13T09:32:41.791Z,16.80
2022-12-13T09:35:09.974Z,18.17
2022-12-13T09:37:44.125Z,18.70
2022-12-13T09:40:26.257Z,18.23
2022-12-13T09:43:11.838Z,18.03
2022-12-13T09:45:45.421Z,16.03
2022-12-13T09:48:14.342Z,17.30
2022-12-13T09:50:58.366Z,16.30
2022-12-13T09:53:40.982Z,17.30
2022-12-13T09:56:11.935Z,16.57
2022-12-13T09:58:39.734Z,15.67
2022-12-13T10:01:08.810Z,17.23
2022-12-13T10:03:37.053Z,17.40
2022-12-13T10:06:13.282Z,19.03
2022-12-13T10:08:42.880Z,16.60
2022-12-13T10:11:12.763Z,16.23
2022-12-13T10:13:41.976Z,15.70
2022-12-13T10:16:14.635Z,16.57
2022-12-13T10:18:51.228Z,16.23
2022-12-13T10:21:20.273Z,17.97
2022-12-13T10:26:37.592Z,16.90
2022-12-13T10:29:06.400Z,15.47
2022-12-13T10:31:41.912Z,14.53
2022-12-13T10:34:17.465Z,15.03
2022-12-13T10:36:46.197Z,15.10
2022-12-13T10:39:17.372Z,15.73
2022-12-13T10:41:48.963Z,15.37
2022-12-13T10:44:20.901Z,15.53
2022-12-13T10:47:01.499Z,16.00
2022-12-13T10:49:33.617Z,16.93
2022-12-13T10:52:01.938Z,16.90
2022-12-13T10:54:38.336Z,16.37
2022-12-13T10:57:06.988Z,16.90
2022-12-13T10:59:35.699Z,15.90
2022-12-13T11:02:25.162Z,14.33
2022-12-13T11:04:52.963Z,13.70
2022-12-13T11:07:24.694Z,14.47
2022-12-13T11:09:53.183Z,14.03
2022-12-13T11:12:22.037Z,16.03
2022-12-13T11:14:50.869Z,14.63
2022-12-13T11:17:22.549Z,14.17
2022-12-13T11:19:51.567Z,14.97
2022-12-13T11:22:23.395Z,14.67
2022-12-13T11:24:52.406Z,15.10
2022-12-13T11:27:25.805Z,15.13
2022-12-13T11:30:01.883Z,14.03
2022-12-13T11:32:36.798Z,13.50
2022-12-13T11:35:09.179Z,13.20
2022-12-13T11:37:41.550Z,15.07
2022-12-13T11:40:13.893Z,16.03
2022-12-13T11:42:46.713Z,15.60
2022-12-13T11:45:23.136Z,14.00
2022-12-13T11:47:58.377Z,13.47
2022-12-13T11:50:33.652Z,12.60
2022-12-13T11:53:20.334Z,12.90
2022-12-13T11:55:50.466Z,13.33
2022-12-13T11:59:00.723Z,14.30
2022-12-13T12:01:13.660Z,13.70
2022-12-13T12:03:45.744Z,11.83
2022-12-13T12:06:17.410Z,12.43
2022-12-13T12:08:47.323Z,13.03
2022-12-13T12:11:21.043Z,13.70
2022-12-13T12:13:52.273Z,12.27
2022-12-13T12:16:26.846Z,13.00
2022-12-13T12:19:01.477Z,12.17
2022-12-13T12:22:05.063Z,12.47
2022-12-13T12:24:29.286Z,13.10
2022-12-13T12:27:02.563Z,13.47
2022-12-13T12:29:51.816Z,15.63
2022-12-13T12:32:25.359Z,12.57
2022-12-13T12:34:57.422Z,11.47
2022-12-13T12:37:30.166Z,12.63
2022-12-13T12:40:05.623Z,11.70
2022-12-13T12:43:13.368Z,10.80
2022-12-13T12:45:55.927Z,11.13
2022-12-13T12:49:00.666Z,11.63
2022-12-13T12:51:27.931Z,11.80
2022-12-13T12:54:00.509Z,11.80
2022-12-13T12:56:36.534Z,11.87
2022-12-13T12:59:11.165Z,11.60
2022-12-13T13:01:49.668Z,12.57
2022-12-13T13:04:23.001Z,13.00
2022-12-13T13:06:54.254Z,12.30
2022-12-13T13:09:30.972Z,12.80
2022-12-13T13:11:59.649Z,12.60
2022-12-13T13:14:30.989Z,12.90
2022-12-13T13:16:59.426Z,11.20
2022-12-13T13:19:41.698Z,12.20
2022-12-13T13:22:31.237Z,12.20
2022-12-13T13:25:21.384Z,12.03
2022-12-13T13:27:51.112Z,10.93
2022-12-13T13:30:20.322Z,10.40
2022-12-13T13:32:49.924Z,10.50
2022-12-13T13:35:53.672Z,10.70
2022-12-13T13:38:42.829Z,10.00
2022-12-13T13:41:25.658Z,10.60
2022-12-13T13:43:54.894Z,10.37
2022-12-13T13:46:22.900Z,10.80
2022-12-13T13:48:56.853Z,10.27
2022-12-13T13:52:23.990Z,12.53
2022-12-13T13:54:57.965Z,12.30
2022-12-13T13:58:07.519Z,10.57
2022-12-13T14:00:23.806Z,10.80
2022-12-13T14:03:22.306Z,11.40
2022-12-13T14:06:19.700Z,12.37
2022-12-13T14:08:52.333Z,10.60
2022-12-13T14:11:25.843Z,12.30
2022-12-13T14:14:22.895Z,12.03
2022-12-13T14:17:05.947Z,13.10
2022-12-13T14:19:57.969Z,12.27
2022-12-13T14:22:31.940Z,12.10
2022-12-13T14:25:18.745Z,14.60
2022-12-13T14:27:49.792Z,12.00
2022-12-13T14:30:28.483Z,34.10
2022-12-13T14:32:57.883Z,15.63
2022-12-13T14:35:27.140Z,14.17
2022-12-13T14:38:00.987Z,13.10
2022-12-13T14:40:30.608Z,14.40
2022-12-13T14:42:58.405Z,14.20
2022-12-13T14:45:29.523Z,15.23
2022-12-13T14:47:58.666Z,14.27
2022-12-13T14:50:27.524Z,13.63
2022-12-13T14:52:57.856Z,14.77
2022-12-13T14:55:28.747Z,15.23
2022-12-13T14:57:57.618Z,15.80
2022-12-13T15:00:26.859Z,14.07
2022-12-13T15:02:56.042Z,13.50
2022-12-13T15:05:28.876Z,13.20
2022-12-13T15:07:57.630Z,14.07
2022-12-13T15:10:27.943Z,14.90
2022-12-13T15:12:57.102Z,14.67
2022-12-13T15:15:28.572Z,16.47
2022-12-13T15:18:07.249Z,16.67
2022-12-13T15:20:40.782Z,18.07
2022-12-13T15:23:15.571Z,17.17
2022-12-13T15:25:43.942Z,16.80
2022-12-13T15:28:18.103Z,15.30
2022-12-13T15:30:49.657Z,15.53
2022-12-13T15:33:18.740Z,14.90
2022-12-13T15:35:48.066Z,14.83
2022-12-13T15:38:28.545Z,16.97
2022-12-13T15:40:58.021Z,16.07
2022-12-13T15:43:35.965Z,16.77
2022-12-13T15:46:04.383Z,17.87
2022-12-13T15:48:33.792Z,20.73
2022-12-13T15:51:06.979Z,23.03
2022-12-13T15:53:35.045Z,22.13
2022-12-13T15:56:09.432Z,21.20
2022-12-13T15:58:39.570Z,17.27
2022-12-13T16:01:07.473Z,17.33
2022-12-13T16:03:41.170Z,16.90
2022-12-13T16:06:09.422Z,17.20
2022-12-13T16:08:39.054Z,16.53
2022-12-13T16:11:07.846Z,16.10
2022-12-13T16:13:37.043Z,17.47
2022-12-13T16:16:27.611Z,18.97
2022-12-13T16:18:58.159Z,17.50
2022-12-13T16:21:26.617Z,17.40
2022-12-13T16:23:54.768Z,18.27
2022-12-13T16:26:24.226Z,19.53
2022-12-13T16:28:52.394Z,17.40
2022-12-13T16:31:21.978Z,17.40
2022-12-13T16:33:51.606Z,16.90
2022-12-13T16:36:20.774Z,17.93
2022-12-13T16:38:48.536Z,19.17
2022-12-13T16:41:16.299Z,18.23
2022-12-13T16:43:50.932Z,19.40
2022-12-13T16:47:11.912Z,19.70
2022-12-13T16:49:09.682Z,20.77
2022-12-13T16:51:41.423Z,20.87
2022-12-13T16:54:13.226Z,19.47
2022-12-13T16:56:41.001Z,22.50
2022-12-13T16:59:10.392Z,21.17
2022-12-13T17:01:38.991Z,20.80
2022-12-13T17:04:15.003Z,20.70
2022-12-13T17:06:47.612Z,20.30
2022-12-13T17:09:15.315Z,20.80
2022-12-13T17:11:43.183Z,19.93
2022-12-13T17:14:11.080Z,20.47
2022-12-13T17:16:38.829Z,21.20
2022-12-13T17:19:06.541Z,19.90
2022-12-13T17:21:34.595Z,19.90
2022-12-13T17:24:04.449Z,18.17
2022-12-13T17:26:33.967Z,19.80
2022-12-13T17:29:02.352Z,19.40
2022-12-13T17:31:35.205Z,19.70
2022-12-13T17:34:04.465Z,19.60
2022-12-13T17:36:32.309Z,20.17
2022-12-13T17:39:00.210Z,18.60
2022-12-13T17:41:29.601Z,19.17
2022-12-13T17:43:59.335Z,18.87
2022-12-13T17:46:27.064Z,18.07
2022-12-13T17:48:54.976Z,19.27
2022-12-13T17:51:23.012Z,20.63
2022-12-13T17:53:50.649Z,19.50
2022-12-13T17:56:19.974Z,19.60
2022-12-13T17:58:49.043Z,19.90
2022-12-13T18:01:18.147Z,19.60
2022-12-13T18:03:48.039Z,18.47
2022-12-13T18:06:15.937Z,18.03
2022-12-13T18:08:44.731Z,18.80
2022-12-13T18:11:32.303Z,17.90
2022-12-13T18:14:04.603Z,18.17
2022-12-13T18:16:37.043Z,19.50
2022-12-13T18:19:06.780Z,18.00
2022-12-13T18:21:35.532Z,18.53
2022-12-13T18:24:03.773Z,19.70
2022-12-13T18:26:31.637Z,19.33
2022-12-13T18:28:59.397Z,20.90
2022-12-13T18:31:28.580Z,19.37
2022-12-13T18:33:56.475Z,19.67
2022-12-13T18:36:25.057Z,19.77
2022-12-13T18:38:53.312Z,20.30
2022-12-13T18:41:21.521Z,21.07
2022-12-13T18:43:49.985Z,20.10
2022-12-13T18:46:17.938Z,19.40
2022-12-13T18:48:47.761Z,21.20
2022-12-13T18:51:15.704Z,21.73
2022-12-13T18:53:43.545Z,19.53
2022-12-13T18:56:18.248Z,19.40
2022-12-13T18:58:48.327Z,18.70
2022-12-13T19:01:16.697Z,18.80
2022-12-13T19:03:45.549Z,19.40
2022-12-13T19:06:16.480Z,17.90
2022-12-13T19:08:44.096Z,18.13
2022-12-13T19:11:11.936Z,18.03
2022-12-13T19:13:40.391Z,18.43
2022-12-13T19:16:08.960Z,18.97
2022-12-13T19:18:37.586Z,19.17
2022-12-13T19:21:07.688Z,18.80
2022-12-13T19:23:36.845Z,18.40
2022-12-13T19:26:08.511Z,18.97
2022-12-13T19:28:38.126Z,24.70
2022-12-13T19:31:05.922Z,20.30
2022-12-13T19:33:35.315Z,20.50
2022-12-13T19:36:03.665Z,20.17
2022-12-13T19:38:32.752Z,20.63
2022-12-13T19:41:01.793Z,20.77
2022-12-13T19:43:29.827Z,20.53
2022-12-13T19:45:58.136Z,21.60
2022-12-13T19:48:28.047Z,22.10
2022-12-13T19:50:58.874Z,23.40
2022-12-13T19:53:27.247Z,21.87
2022-12-13T19:55:55.728Z,23.20
2022-12-13T19:58:25.782Z,20.13
2022-12-13T20:00:54.303Z,21.67
2022-12-13T20:03:22.225Z,19.73
2022-12-13T20:05:57.713Z,23.77
2022-12-13T20:08:26.041Z,22.40
2022-12-13T20:10:58.257Z,22.30
2022-12-13T20:13:28.409Z,21.17
2022-12-13T20:15:56.436Z,25.13
2022-12-13T20:18:24.136Z,21.67
2022-12-13T20:21:11.114Z,23.03
2022-12-13T20:23:39.705Z,21.60
2022-12-13T20:26:09.410Z,24.30
2022-12-13T20:28:38.787Z,21.00
2022-12-13T20:31:07.334Z,23.23
2022-12-13T20:33:35.335Z,23.40
2022-12-13T20:36:23.709Z,30.13
2022-12-13T20:38:52.743Z,28.60
2022-12-13T20:41:20.462Z,29.20
2022-12-13T20:43:51.404Z,23.53
2022-12-13T20:46:19.934Z,20.50
2022-12-13T20:48:48.376Z,25.13
2022-12-13T20:51:17.830Z,18.20
2022-12-13T20:53:46.081Z,27.73
2022-12-13T20:56:15.073Z,29.37
2022-12-13T20:58:43.345Z,23.40
2022-12-13T21:01:16.540Z,25.37
2022-12-13T21:03:44.461Z,22.37
2022-12-13T21:06:12.447Z,20.63
2022-12-13T21:08:52.270Z,26.50
2022-12-13T21:11:26.321Z,29.53
2022-12-13T21:13:56.179Z,23.90
2022-12-13T21:16:26.259Z,26.90
2022-12-13T21:18:55.280Z,25.20
2022-12-13T21:21:23.297Z,32.30
2022-12-13T21:23:51.130Z,21.20
2022-12-13T21:26:19.319Z,27.97
2022-12-13T21:28:47.546Z,26.70
2022-12-13T21:31:15.520Z,26.77
2022-12-13T21:33:50.011Z,24.53
2022-12-13T21:36:18.484Z,23.23
2022-12-13T21:38:46.222Z,30.30
2022-12-13T21:41:14.416Z,24.60
2022-12-13T21:43:42.055Z,22.50
2022-12-13T21:46:17.272Z,37.03
2022-12-13T21:48:45.478Z,29.67
2022-12-13T21:51:15.328Z,22.27
2022-12-13T21:53:44.158Z,27.57
2022-12-13T21:56:30.505Z,29.10
2022-12-13T21:59:16.861Z,25.50
2022-12-13T22:02:02.758Z,21.87
2022-12-13T22:04:31.105Z,25.90
2022-12-13T22:07:00.764Z,22.93
2022-12-13T22:09:28.729Z,23.63
2022-12-13T22:11:56.684Z,26.97
2022-12-13T22:14:24.440Z,23.17
2022-12-13T22:16:52.220Z,23.50
2022-12-13T22:19:20.489Z,28.30
2022-12-13T22:21:48.134Z,33.03
2022-12-13T22:24:17.535Z,27.67
2022-12-13T22:26:45.251Z,23.30
2022-12-13T22:29:13.722Z,26.13
2022-12-13T22:31:41.943Z,32.87
2022-12-13T22:34:10.184Z,30.53
2022-12-13T22:36:37.909Z,22.60
2022-12-13T22:39:06.745Z,27.17
2022-12-13T22:41:35.981Z,26.90
2022-12-13T22:44:04.244Z,24.77
2022-12-13T22:46:31.951Z,27.20
2022-12-13T22:48:59.725Z,22.53
2022-12-13T22:51:27.519Z,26.50
2022-12-13T22:53:55.695Z,23.27
2022-12-13T22:56:24.337Z,30.73
2022-12-13T22:58:55.176Z,29.33
2022-12-13T23:01:26.783Z,24.13
2022-12-13T23:03:54.838Z,21.00
2022-12-13T23:06:23.654Z,19.40
2022-12-13T23:08:52.683Z,19.73
2022-12-13T23:11:38.431Z,28.20
2022-12-13T23:14:08.546Z,21.90
2022-12-13T23:16:36.523Z,20.63
2022-12-13T23:19:39.260Z,21.40
2022-12-13T23:21:54.050Z,21.30
2022-12-13T23:24:21.859Z,21.40
2022-12-13T23:26:49.523Z,21.47
2022-12-13T23:29:18.796Z,20.83
2022-12-13T23:31:48.764Z,20.43
2022-12-13T23:34:17.082Z,21.07
2022-12-13T23:36:44.929Z,22.30
2022-12-13T23:39:12.762Z,21.27
2022-12-13T23:41:41.057Z,25.67
2022-12-13T23:44:08.990Z,21.43
2022-12-13T23:46:37.994Z,27.53
2022-12-13T23:49:06.408Z,29.70
2022-12-13T23:51:34.976Z,24.87
2022-12-13T23:54:02.716Z,23.30
2022-12-13T23:56:30.440Z,26.87
2022-12-13T23:58:58.398Z,22.50
